Time;durP1;ratioP1;P1;durP2;ratioP2;P2;SDS_P1;SDS_P2;PMS_P1;PMS_P2;Temp;Humidity;BMP_temperature;BMP_pressure;BME280_temperature;BME280_humidity;BME280_pressure;Samples;Min_cycle;Max_cycle;Signal;HPM_P1;HPM_P2
2023/05/08 04:12:40;;;;;;;1999.90;999.90;;;;;;;;;;5063377;22;20150;-62
2023/05/08 04:15:08;;;;;;;1999.90;999.90;;;;;;;;;;5050481;28;20135;-67
2023/05/08 04:17:37;;;;;;;1999.90;999.90;;;;;;;;;;5051354;28;20021;-68
2023/05/08 04:20:04;;;;;;;1999.90;999.90;;;;;;;;;;5051873;28;20024;-67
2023/05/08 04:22:34;;;;;;;1999.90;999.90;;;;;;;;;;5051346;28;20029;-68
2023/05/08 04:25:02;;;;;;;1999.90;999.90;;;;;;;;;;5051190;28;20040;-66
2023/05/08 04:27:28;;;;;;;1999.90;999.90;;;;;;;;;;5051133;28;20108;-61
2023/05/08 04:29:55;;;;;;;1999.90;999.90;;;;;;;;;;5032328;28;20519;-67
2023/05/08 04:32:22;;;;;;;1999.90;999.90;;;;;;;;;;5051408;28;20116;-67
2023/05/08 04:34:48;;;;;;;1999.90;999.90;;;;;;;;;;5051439;28;20356;-67
2023/05/08 04:37:24;;;;;;;1999.90;999.90;;;;;;;;;;5051500;28;20036;-63
2023/05/08 04:39:51;;;;;;;1999.90;999.90;;;;;;;;;;5051533;28;20104;-65
2023/05/08 04:42:17;;;;;;;1999.90;999.90;;;;;;;;;;5051391;28;20087;-67
2023/05/08 04:44:43;;;;;;;1999.90;999.90;;;;;;;;;;5051368;28;20033;-65
2023/05/08 04:47:09;;;;;;;1999.90;999.90;;;;;;;;;;5047566;28;20021;-67
2023/05/08 04:49:35;;;;;;;1999.90;999.90;;;;;;;;;;5043857;28;20033;-62
2023/05/08 04:52:01;;;;;;;1999.90;999.90;;;;;;;;;;5051091;28;20445;-67
2023/05/08 04:54:27;;;;;;;1999.90;999.90;;;;;;;;;;5054845;28;20032;-62
2023/05/08 04:56:53;;;;;;;1999.90;999.90;;;;;;;;;;5071197;28;20498;-61
2023/05/08 04:59:19;;;;;;;1999.90;999.90;;;;;;;;;;5070400;28;20078;-61
2023/05/08 05:01:46;;;;;;;1999.90;999.90;;;;;;;;;;5070934;28;20027;-61
2023/05/08 05:04:12;;;;;;;1999.90;999.90;;;;;;;;;;5071302;28;20036;-62
2023/05/08 05:06:38;;;;;;;1999.90;999.90;;;;;;;;;;5070942;28;20469;-62
2023/05/08 05:09:05;;;;;;;1999.90;999.90;;;;;;;;;;5070833;28;20061;-62
2023/05/08 05:11:31;;;;;;;1999.90;999.90;;;;;;;;;;5081541;28;20052;-66
2023/05/08 05:13:57;;;;;;;1999.90;999.90;;;;;;;;;;5091237;28;20036;-62
2023/05/08 05:16:23;;;;;;;1999.90;999.90;;;;;;;;;;5090930;28;20031;-61
2023/05/08 05:18:49;;;;;;;1999.90;999.90;;;;;;;;;;5091352;28;20084;-62
2023/05/08 05:21:15;;;;;;;1999.90;999.90;;;;;;;;;;5091194;28;20115;-69
2023/05/08 05:23:41;;;;;;;1999.90;999.90;;;;;;;;;;5082201;28;20029;-71
2023/05/08 05:26:07;;;;;;;1999.90;999.90;;;;;;;;;;5070397;28;20496;-64
2023/05/08 05:28:33;;;;;;;1999.90;999.90;;;;;;;;;;5060024;28;20047;-62
2023/05/08 05:30:59;;;;;;;1999.90;999.90;;;;;;;;;;5079091;28;20025;-61
2023/05/08 05:33:26;;;;;;;1999.90;999.90;;;;;;;;;;5079711;28;20024;-62
2023/05/08 05:35:52;;;;;;;1999.90;999.90;;;;;;;;;;5080433;28;20055;-63
2023/05/08 05:38:18;;;;;;;1999.90;999.90;;;;;;;;;;5078856;28;20043;-62
2023/05/08 05:40:44;;;;;;;1999.90;999.90;;;;;;;;;;5080018;28;20051;-61
2023/05/08 05:43:10;;;;;;;1999.90;999.90;;;;;;;;;;5079953;28;20478;-61
2023/05/08 05:45:36;;;;;;;1999.90;999.90;;;;;;;;;;5078664;28;20684;-61
2023/05/08 05:48:02;;;;;;;1999.90;999.90;;;;;;;;;;5080286;28;20024;-63
2023/05/08 05:50:28;;;;;;;1999.90;999.90;;;;;;;;;;5079273;28;20028;-62
2023/05/08 05:52:54;;;;;;;1999.90;999.90;;;;;;;;;;5064981;28;20759;-63
2023/05/08 05:55:21;;;;;;;1999.90;999.90;;;;;;;;;;5070486;28;20032;-61
2023/05/08 05:57:47;;;;;;;1999.90;999.90;;;;;;;;;;5070108;28;20383;-61
2023/05/08 06:00:15;;;;;;;1999.90;999.90;;;;;;;;;;5070438;28;20150;-61
2023/05/08 06:02:41;;;;;;;1999.90;999.90;;;;;;;;;;5070445;28;20012;-64
2023/05/08 06:05:08;;;;;;;1999.90;999.90;;;;;;;;;;5073624;28;20391;-62
2023/05/08 06:07:34;;;;;;;1999.90;999.90;;;;;;;;;;5080805;28;20031;-61
2023/05/08 06:10:00;;;;;;;1999.90;999.90;;;;;;;;;;5077483;28;20453;-65
2023/05/08 06:12:27;;;;;;;1999.90;999.90;;;;;;;;;;5079457;28;20170;-63
2023/05/08 06:14:53;;;;;;;1999.90;999.90;;;;;;;;;;5078391;28;20024;-67
2023/05/08 06:17:19;;;;;;;1999.90;999.90;;;;;;;;;;5061745;28;20029;-64
2023/05/08 06:19:53;;;;;;;1999.90;999.90;;;;;;;;;;5078756;28;20024;-63
2023/05/08 06:22:22;;;;;;;1999.90;999.90;;;;;;;;;;5061281;28;20103;-64
2023/05/08 06:24:48;;;;;;;1999.90;999.90;;;;;;;;;;5061499;28;20029;-62
2023/05/08 06:27:14;;;;;;;1999.90;999.90;;;;;;;;;;5076985;28;20471;-62
2023/05/08 06:29:40;;;;;;;1999.90;999.90;;;;;;;;;;5079662;28;20020;-62
2023/05/08 06:32:06;;;;;;;1999.90;999.90;;;;;;;;;;5077917;28;20024;-62
2023/05/08 06:34:32;;;;;;;1999.90;999.90;;;;;;;;;;5078688;28;20039;-65
2023/05/08 06:36:58;;;;;;;1999.90;999.90;;;;;;;;;;5060741;28;20054;-72
2023/05/08 06:39:24;;;;;;;1999.90;999.90;;;;;;;;;;5078830;28;20115;-63
2023/05/08 06:41:50;;;;;;;1999.90;999.90;;;;;;;;;;5078018;28;20079;-63
2023/05/08 06:44:16;;;;;;;1999.90;999.90;;;;;;;;;;5079935;28;20359;-64
2023/05/08 06:46:42;;;;;;;1999.90;999.90;;;;;;;;;;5080585;28;20035;-65
2023/05/08 06:49:08;;;;;;;1999.90;999.90;;;;;;;;;;5090009;28;20057;-65
2023/05/08 06:51:37;;;;;;;1999.90;999.90;;;;;;;;;;5090950;28;20045;-73
2023/05/08 06:54:06;;;;;;;1999.90;999.90;;;;;;;;;;5089640;28;20115;-63
2023/05/08 06:56:32;;;;;;;1999.90;999.90;;;;;;;;;;5093292;28;20031;-61
2023/05/08 06:58:59;;;;;;;1999.90;999.90;;;;;;;;;;5093651;28;20471;-61
2023/05/08 07:01:25;;;;;;;1999.90;999.90;;;;;;;;;;5082047;28;20090;-68
2023/05/08 07:03:51;;;;;;;1999.90;999.90;;;;;;;;;;5073202;28;20032;-64
2023/05/08 07:06:17;;;;;;;1999.90;999.90;;;;;;;;;;5073483;28;20468;-69
2023/05/08 07:08:43;;;;;;;1999.90;999.90;;;;;;;;;;5074206;28;20029;-66
2023/05/08 07:11:09;;;;;;;1999.90;999.90;;;;;;;;;;5076453;28;20458;-62
2023/05/08 07:13:35;;;;;;;1999.90;999.90;;;;;;;;;;5077954;28;20502;-71
2023/05/08 07:16:02;;;;;;;1999.90;999.90;;;;;;;;;;5073282;28;20929;-71
2023/05/08 07:18:28;;;;;;;1999.90;999.90;;;;;;;;;;5092060;28;20103;-64
2023/05/08 07:20:54;;;;;;;1999.90;999.90;;;;;;;;;;5082019;28;20036;-70
2023/05/08 07:23:20;;;;;;;1999.90;999.90;;;;;;;;;;5079821;28;20061;-62
2023/05/08 07:25:47;;;;;;;1999.90;999.90;;;;;;;;;;5085012;28;20039;-67
2023/05/08 07:28:13;;;;;;;1999.90;999.90;;;;;;;;;;5086771;28;20035;-65
2023/05/08 07:30:39;;;;;;;1999.90;999.90;;;;;;;;;;5093139;28;20024;-62
2023/05/08 07:33:05;;;;;;;1999.90;999.90;;;;;;;;;;5093019;28;20387;-69
2023/05/08 07:35:31;;;;;;;1999.90;999.90;;;;;;;;;;5080834;28;20112;-67
2023/05/08 07:37:57;;;;;;;1999.90;999.90;;;;;;;;;;5054570;28;20024;-69
2023/05/08 07:40:23;;;;;;;1999.90;999.90;;;;;;;;;;5072515;28;20040;-72
2023/05/08 07:42:49;;;;;;;1999.90;999.90;;;;;;;;;;5073182;28;20365;-66
2023/05/08 07:45:15;;;;;;;1999.90;999.90;;;;;;;;;;5074305;28;20472;-68
2023/05/08 07:47:49;;;;;;;1999.90;999.90;;;;;;;;;;5072193;28;20048;-71
2023/05/08 07:50:15;;;;;;;1999.90;999.90;;;;;;;;;;5072442;28;20020;-71
2023/05/08 07:52:41;;;;;;;1999.90;999.90;;;;;;;;;;5072325;28;20128;-72
2023/05/08 07:55:07;;;;;;;1999.90;999.90;;;;;;;;;;5076911;28;20495;-66
2023/05/08 07:57:40;;;;;;;1999.90;999.90;;;;;;;;;;5086433;28;20047;-71
2023/05/08 08:00:07;;;;;;;1999.90;999.90;;;;;;;;;;5082236;28;20032;-70
2023/05/08 08:02:33;;;;;;;1999.90;999.90;;;;;;;;;;5072222;28;20031;-64
2023/05/08 08:04:59;;;;;;;1999.90;999.90;;;;;;;;;;5053857;28;20492;-66
2023/05/08 08:07:25;;;;;;;1999.90;999.90;;;;;;;;;;5054019;28;20069;-70
2023/05/08 08:09:51;;;;;;;1999.90;999.90;;;;;;;;;;5072190;28;20384;-73
2023/05/08 08:12:17;;;;;;;1999.90;999.90;;;;;;;;;;5073500;28;20194;-73
2023/05/08 08:14:43;;;;;;;1999.90;999.90;;;;;;;;;;5081529;28;20387;-61
2023/05/08 08:17:09;;;;;;;1999.90;999.90;;;;;;;;;;5083105;28;20177;-61
2023/05/08 08:19:35;;;;;;;1999.90;999.90;;;;;;;;;;5071985;28;20123;-60
2023/05/08 08:22:01;;;;;;;1999.90;999.90;;;;;;;;;;5071939;28;20153;-59
2023/05/08 08:24:28;;;;;;;1999.90;999.90;;;;;;;;;;5071888;28;20082;-60
2023/05/08 08:26:54;;;;;;;1999.90;999.90;;;;;;;;;;5071402;28;20096;-60
2023/05/08 08:29:20;;;;;;;1999.90;999.90;;;;;;;;;;5071453;28;20028;-60
2023/05/08 08:31:46;;;;;;;1999.90;999.90;;;;;;;;;;5071740;28;20033;-60
2023/05/08 08:34:12;;;;;;;1999.90;999.90;;;;;;;;;;5078674;28;20041;-60
2023/05/08 08:36:39;;;;;;;1999.90;999.90;;;;;;;;;;5080534;28;20024;-60
2023/05/08 08:39:05;;;;;;;1999.90;999.90;;;;;;;;;;5080852;28;20126;-62
2023/05/08 08:41:32;;;;;;;1999.90;999.90;;;;;;;;;;5078983;28;20533;-61
2023/05/08 08:43:58;;;;;;;1999.90;999.90;;;;;;;;;;5080834;28;20042;-60
2023/05/08 08:46:25;;;;;;;1999.90;999.90;;;;;;;;;;5062182;28;20024;-60
2023/05/08 08:48:53;;;;;;;1999.90;999.90;;;;;;;;;;5078996;28;20031;-60
2023/05/08 08:51:30;;;;;;;1999.90;999.90;;;;;;;;;;5081987;28;20021;-60
2023/05/08 08:54:02;;;;;;;1999.90;999.90;;;;;;;;;;5079228;28;20024;-60
2023/05/08 08:56:28;;;;;;;1999.90;999.90;;;;;;;;;;5079069;28;20031;-73
2023/05/08 08:58:58;;;;;;;1999.90;999.90;;;;;;;;;;5080986;28;20145;-65
2023/05/08 09:01:27;;;;;;;1999.90;999.90;;;;;;;;;;5080112;28;20019;-63
2023/05/08 09:03:54;;;;;;;1999.90;999.90;;;;;;;;;;5078521;28;20052;-60
2023/05/08 09:06:20;;;;;;;1999.90;999.90;;;;;;;;;;5080118;28;20479;-71
2023/05/08 09:08:47;;;;;;;1999.90;999.90;;;;;;;;;;5060830;28;20028;-70
2023/05/08 09:11:13;;;;;;;1999.90;999.90;;;;;;;;;;5089665;28;20044;-70
2023/05/08 09:13:39;;;;;;;1999.90;999.90;;;;;;;;;;5091549;28;20097;-71
2023/05/08 09:16:05;;;;;;;1999.90;999.90;;;;;;;;;;5087069;28;20029;-75
2023/05/08 09:18:31;;;;;;;1999.90;999.90;;;;;;;;;;5077660;28;20103;-61
2023/05/08 09:21:00;;;;;;;1999.90;999.90;;;;;;;;;;5078242;28;20468;-68
2023/05/08 09:23:26;;;;;;;1999.90;999.90;;;;;;;;;;5079305;28;20020;-60
2023/05/08 09:25:52;;;;;;;1999.90;999.90;;;;;;;;;;5077919;28;20451;-62
2023/05/08 09:28:25;;;;;;;1999.90;999.90;;;;;;;;;;5077361;28;20101;-60
2023/05/08 09:30:52;;;;;;;1999.90;999.90;;;;;;;;;;5079883;28;20111;-62
2023/05/08 09:33:19;;;;;;;1999.90;999.90;;;;;;;;;;5090595;28;20023;-73
2023/05/08 09:35:47;;;;;;;1999.90;999.90;;;;;;;;;;5090812;28;20024;-60
2023/05/08 09:38:42;;;;;;;1999.90;999.90;;;;;;;;;;5090676;28;20510;-76
2023/05/08 09:41:15;;;;;;;1999.90;999.90;;;;;;;;;;4988459;28;20522;-61
2023/05/08 09:43:59;;;;;;;1999.90;999.90;;;;;;;;;;4980508;28;20069;-62
2023/05/08 09:46:26;;;;;;;1999.90;999.90;;;;;;;;;;4988492;28;20093;-60
2023/05/08 09:48:55;;;;;;;1999.90;999.90;;;;;;;;;;4988531;28;20033;-61
2023/05/08 09:51:21;;;;;;;1999.90;999.90;;;;;;;;;;4985448;28;20254;-69
2023/05/08 09:53:50;;;;;;;1999.90;999.90;;;;;;;;;;4977011;28;20023;-71
2023/05/08 09:56:28;;;;;;;1999.90;999.90;;;;;;;;;;4973951;28;20034;-62
2023/05/08 09:58:54;;;;;;;1999.90;999.90;;;;;;;;;;4969221;28;20035;-61
2023/05/08 10:01:29;;;;;;;1999.90;999.90;;;;;;;;;;4974118;28;20031;-62
2023/05/08 10:03:55;;;;;;;1999.90;999.90;;;;;;;;;;4971638;28;20046;-63
2023/05/08 10:06:21;;;;;;;1999.90;999.90;;;;;;;;;;4981606;28;20551;-64
2023/05/08 10:08:48;;;;;;;1999.90;999.90;;;;;;;;;;4971488;28;20137;-60
2023/05/08 10:11:17;;;;;;;1999.90;999.90;;;;;;;;;;4987930;28;20050;-61
2023/05/08 10:13:47;;;;;;;1999.90;999.90;;;;;;;;;;4988386;28;20034;-73
2023/05/08 10:16:17;;;;;;;1999.90;999.90;;;;;;;;;;4969386;28;20038;-76
2023/05/08 10:18:48;;;;;;;1999.90;999.90;;;;;;;;;;5083344;28;20054;-61
2023/05/08 10:21:14;;;;;;;1999.90;999.90;;;;;;;;;;5089234;28;20027;-63
2023/05/08 10:23:44;;;;;;;1999.90;999.90;;;;;;;;;;5090014;28;20104;-73
2023/05/08 10:26:14;;;;;;;1999.90;999.90;;;;;;;;;;5089905;28;20471;-61
2023/05/08 10:28:50;;;;;;;1999.90;999.90;;;;;;;;;;5093354;28;20024;-61
2023/05/08 10:31:17;;;;;;;1999.90;999.90;;;;;;;;;;5093599;28;20020;-77
2023/05/08 10:33:45;;;;;;;1999.90;999.90;;;;;;;;;;5083431;28;20024;-76
2023/05/08 10:36:12;;;;;;;1999.90;999.90;;;;;;;;;;5082706;28;20020;-63
2023/05/08 10:38:39;;;;;;;1999.90;999.90;;;;;;;;;;5083597;28;20015;-63
2023/05/08 10:41:05;;;;;;;1999.90;999.90;;;;;;;;;;5082238;28;20066;-62
2023/05/08 10:43:31;;;;;;;1999.90;999.90;;;;;;;;;;5073990;28;20101;-77
2023/05/08 10:45:58;;;;;;;1999.90;999.90;;;;;;;;;;5073261;28;20152;-76
2023/05/08 10:48:43;;;;;;;1999.90;999.90;;;;;;;;;;5081489;28;20472;-69
2023/05/08 10:51:20;;;;;;;1999.90;999.90;;;;;;;;;;5057695;28;20365;-77
2023/05/08 10:53:52;;;;;;;1999.90;999.90;;;;;;;;;;5091951;28;20035;-62
2023/05/08 10:56:18;;;;;;;1999.90;999.90;;;;;;;;;;5063691;28;20131;-63
2023/05/08 10:58:44;;;;;;;1999.90;999.90;;;;;;;;;;5073237;28;20163;-63
2023/05/08 11:01:11;;;;;;;1999.90;999.90;;;;;;;;;;5073921;28;20047;-62
2023/05/08 11:03:43;;;;;;;1999.90;999.90;;;;;;;;;;5081741;28;20024;-63
2023/05/08 11:06:10;;;;;;;1999.90;999.90;;;;;;;;;;5093685;28;20495;-71
2023/05/08 11:08:45;;;;;;;1999.90;999.90;;;;;;;;;;5086962;28;20033;-63
2023/05/08 11:11:25;;;;;;;1999.90;999.90;;;;;;;;;;5089136;28;20127;-63
2023/05/08 11:14:11;;;;;;;1999.90;999.90;;;;;;;;;;5072982;28;20028;-62
2023/05/08 11:16:55;;;;;;;1999.90;999.90;;;;;;;;;;5081199;28;20051;-70
2023/05/08 11:19:22;;;;;;;1999.90;999.90;;;;;;;;;;5093256;28;20531;-61
2023/05/08 11:22:24;;;;;;;1999.90;999.90;;;;;;;;;;5093036;28;20028;-72
2023/05/08 11:24:59;;;;;;;1999.90;999.90;;;;;;;;;;4988741;28;20042;-61
2023/05/08 11:27:37;;;;;;;1999.90;999.90;;;;;;;;;;4975728;28;20039;-61
2023/05/08 11:30:18;;;;;;;1999.90;999.90;;;;;;;;;;4980298;28;20566;-72
2023/05/08 11:32:57;;;;;;;1999.90;999.90;;;;;;;;;;4978435;28;20066;-61
2023/05/08 11:35:42;;;;;;;1999.90;999.90;;;;;;;;;;4971787;28;20070;-72
2023/05/08 11:38:15;;;;;;;1999.90;999.90;;;;;;;;;;4971268;28;20468;-64
2023/05/08 11:41:07;;;;;;;1999.90;999.90;;;;;;;;;;4973664;28;20035;-69
2023/05/08 11:43:36;;;;;;;1999.90;999.90;;;;;;;;;;4950735;28;20043;-63
2023/05/08 11:46:07;;;;;;;1999.90;999.90;;;;;;;;;;4990619;28;20437;-66
2023/05/08 11:48:33;;;;;;;1999.90;999.90;;;;;;;;;;4990409;28;20540;-62
2023/05/08 11:51:00;;;;;;;1999.90;999.90;;;;;;;;;;4974601;28;20150;-80
2023/05/08 11:53:26;;;;;;;1999.90;999.90;;;;;;;;;;4977804;28;20042;-63
2023/05/08 11:55:53;;;;;;;1999.90;999.90;;;;;;;;;;4954963;28;20561;-63
2023/05/08 11:58:19;;;;;;;1999.90;999.90;;;;;;;;;;5000867;28;20117;-62
2023/05/08 12:00:46;;;;;;;1999.90;999.90;;;;;;;;;;5072332;28;20103;-64
2023/05/08 12:03:12;;;;;;;1999.90;999.90;;;;;;;;;;5072441;28;20075;-76
2023/05/08 12:05:38;;;;;;;1999.90;999.90;;;;;;;;;;5072204;28;20064;-63
2023/05/08 12:08:08;;;;;;;1999.90;999.90;;;;;;;;;;5081026;28;20035;-63
2023/05/08 12:10:41;;;;;;;1999.90;999.90;;;;;;;;;;5080031;28;20085;-64
2023/05/08 12:13:18;;;;;;;1999.90;999.90;;;;;;;;;;5079946;28;20044;-63
2023/05/08 12:15:45;;;;;;;1999.90;999.90;;;;;;;;;;5081039;28;20017;-64
2023/05/08 12:18:11;;;;;;;1999.90;999.90;;;;;;;;;;5080037;28;20012;-64
2023/05/08 12:20:37;;;;;;;1999.90;999.90;;;;;;;;;;5076760;28;20039;-64
2023/05/08 12:23:03;;;;;;;1999.90;999.90;;;;;;;;;;5072024;28;20044;-64
2023/05/08 12:25:29;;;;;;;1999.90;999.90;;;;;;;;;;5071844;28;20167;-63
2023/05/08 12:27:56;;;;;;;1999.90;999.90;;;;;;;;;;5071407;28;20384;-67
2023/05/08 12:30:22;;;;;;;1999.90;999.90;;;;;;;;;;5071707;28;20547;-80
2023/05/08 12:32:49;;;;;;;1999.90;999.90;;;;;;;;;;5071391;28;20021;-63
2023/05/08 12:35:15;;;;;;;1999.90;999.90;;;;;;;;;;5070016;28;20055;-63
2023/05/08 12:37:41;;;;;;;1999.90;999.90;;;;;;;;;;5071346;28;20028;-63
2023/05/08 12:40:22;;;;;;;1999.90;999.90;;;;;;;;;;5071215;28;20427;-64
2023/05/08 12:42:49;;;;;;;1999.90;999.90;;;;;;;;;;5071251;28;20043;-63
2023/05/08 12:45:23;;;;;;;1999.90;999.90;;;;;;;;;;5071218;28;20024;-64
2023/05/08 12:47:50;;;;;;;1999.90;999.90;;;;;;;;;;5071297;28;20404;-74
2023/05/08 12:50:16;;;;;;;1999.90;999.90;;;;;;;;;;5080273;28;20016;-63
2023/05/08 12:52:43;;;;;;;1999.90;999.90;;;;;;;;;;5082362;28;20031;-63
2023/05/08 12:55:24;;;;;;;1999.90;999.90;;;;;;;;;;5084233;28;20031;-63
2023/05/08 12:57:50;;;;;;;1999.90;999.90;;;;;;;;;;5052756;28;20393;-64
2023/05/08 13:00:18;;;;;;;1999.90;999.90;;;;;;;;;;5070799;28;20089;-64
2023/05/08 13:02:54;;;;;;;1999.90;999.90;;;;;;;;;;5070954;28;20056;-63
2023/05/08 13:05:23;;;;;;;1999.90;999.90;;;;;;;;;;5070715;28;20033;-64
2023/05/08 13:07:50;;;;;;;1999.90;999.90;;;;;;;;;;5070902;28;20037;-64
2023/05/08 13:10:17;;;;;;;1999.90;999.90;;;;;;;;;;5070246;28;20028;-65
2023/05/08 13:12:44;;;;;;;1999.90;999.90;;;;;;;;;;5070653;28;20044;-63
2023/05/08 13:15:10;;;;;;;1999.90;999.90;;;;;;;;;;5070814;28;20060;-66
2023/05/08 13:17:36;;;;;;;1999.90;999.90;;;;;;;;;;5072641;28;20066;-66
2023/05/08 13:20:02;;;;;;;1999.90;999.90;;;;;;;;;;5077976;28;20028;-63
2023/05/08 13:22:29;;;;;;;1999.90;999.90;;;;;;;;;;5070703;28;20017;-62
2023/05/08 13:24:55;;;;;;;1999.90;999.90;;;;;;;;;;5070241;28;20060;-65
2023/05/08 13:27:21;;;;;;;1999.90;999.90;;;;;;;;;;5070098;28;20021;-64
2023/05/08 13:29:47;;;;;;;1999.90;999.90;;;;;;;;;;5085355;28;20032;-61
2023/05/08 13:32:13;;;;;;;1999.90;999.90;;;;;;;;;;5090684;28;20024;-61
2023/05/08 13:34:39;;;;;;;1999.90;999.90;;;;;;;;;;5090439;28;20401;-61
2023/05/08 13:37:05;;;;;;;1999.90;999.90;;;;;;;;;;5090530;28;20549;-62
2023/05/08 13:39:36;;;;;;;1999.90;999.90;;;;;;;;;;5090697;28;20106;-61
2023/05/08 13:42:02;;;;;;;1999.90;999.90;;;;;;;;;;5090435;28;20039;-63
2023/05/08 13:44:28;;;;;;;1999.90;999.90;;;;;;;;;;5090415;28;20047;-78
2023/05/08 13:46:54;;;;;;;1999.90;999.90;;;;;;;;;;5090649;28;20082;-63
2023/05/08 13:49:23;;;;;;;1999.90;999.90;;;;;;;;;;5090491;28;20157;-64
2023/05/08 13:51:49;;;;;;;1999.90;999.90;;;;;;;;;;5090585;28;20468;-63
2023/05/08 13:54:15;;;;;;;1999.90;999.90;;;;;;;;;;5090618;28;20486;-63
2023/05/08 13:56:41;;;;;;;1999.90;999.90;;;;;;;;;;5090530;28;20028;-63
2023/05/08 13:59:07;;;;;;;1999.90;999.90;;;;;;;;;;5090200;28;20020;-63
2023/05/08 14:01:33;;;;;;;1999.90;999.90;;;;;;;;;;5092723;28;20386;-65
2023/05/08 14:03:59;;;;;;;1999.90;999.90;;;;;;;;;;5094095;28;20024;-63
2023/05/08 14:06:25;;;;;;;1999.90;999.90;;;;;;;;;;5092498;28;20024;-63
2023/05/08 14:08:51;;;;;;;1999.90;999.90;;;;;;;;;;5093638;28;20024;-63
2023/05/08 14:11:17;;;;;;;1999.90;999.90;;;;;;;;;;5093697;28;20082;-63
2023/05/08 14:13:44;;;;;;;1999.90;999.90;;;;;;;;;;5093713;28;20035;-63
2023/05/08 14:16:11;;;;;;;1999.90;999.90;;;;;;;;;;5093570;28;20119;-62
2023/05/08 14:18:37;;;;;;;1999.90;999.90;;;;;;;;;;5094162;28;20637;-62
2023/05/08 14:21:03;;;;;;;1999.90;999.90;;;;;;;;;;5075429;28;20391;-62
2023/05/08 14:23:29;;;;;;;1999.90;999.90;;;;;;;;;;5094268;28;20028;-75
2023/05/08 14:25:55;;;;;;;1999.90;999.90;;;;;;;;;;5094348;28;20039;-61
2023/05/08 14:28:21;;;;;;;1999.90;999.90;;;;;;;;;;5093750;28;20025;-78
2023/05/08 14:30:47;;;;;;;1999.90;999.90;;;;;;;;;;5094454;28;20028;-62
2023/05/08 14:33:13;;;;;;;1999.90;999.90;;;;;;;;;;5094211;28;20095;-63
2023/05/08 14:35:42;;;;;;;1999.90;999.90;;;;;;;;;;5094273;28;20103;-75
2023/05/08 14:38:10;;;;;;;1999.90;999.90;;;;;;;;;;5093713;28;20099;-64
2023/05/08 14:40:37;;;;;;;1999.90;999.90;;;;;;;;;;5088666;28;20543;-62
2023/05/08 14:43:03;;;;;;;1999.90;999.90;;;;;;;;;;5073043;28;20027;-74
2023/05/08 14:45:29;;;;;;;1999.90;999.90;;;;;;;;;;5078666;28;20032;-62
2023/05/08 14:47:55;;;;;;;1999.90;999.90;;;;;;;;;;5082796;28;20692;-64
2023/05/08 14:50:23;;;;;;;1999.90;999.90;;;;;;;;;;5078747;28;20115;-63
2023/05/08 14:52:49;;;;;;;1999.90;999.90;;;;;;;;;;5088787;28;20031;-63
2023/05/08 14:55:19;;;;;;;1999.90;999.90;;;;;;;;;;5076106;28;20162;-62
2023/05/08 14:57:45;;;;;;;1999.90;999.90;;;;;;;;;;5078260;28;20103;-67
2023/05/08 15:00:12;;;;;;;1999.90;999.90;;;;;;;;;;5088926;28;20029;-63
2023/05/08 15:02:38;;;;;;;1999.90;999.90;;;;;;;;;;5080956;28;20028;-62
2023/05/08 15:05:05;;;;;;;1999.90;999.90;;;;;;;;;;5074576;28;20511;-63
2023/05/08 15:07:31;;;;;;;1999.90;999.90;;;;;;;;;;5072891;28;20082;-62
2023/05/08 15:09:57;;;;;;;1999.90;999.90;;;;;;;;;;5075309;28;20384;-68
2023/05/08 15:12:23;;;;;;;1999.90;999.90;;;;;;;;;;5071413;28;20053;-62
2023/05/08 15:14:50;;;;;;;1999.90;999.90;;;;;;;;;;5080810;28;20028;-73
2023/05/08 15:17:16;;;;;;;1999.90;999.90;;;;;;;;;;5083676;28;20024;-62
2023/05/08 15:19:42;;;;;;;1999.90;999.90;;;;;;;;;;5085756;28;20060;-79
2023/05/08 15:22:08;;;;;;;1999.90;999.90;;;;;;;;;;5086800;28;20017;-67
2023/05/08 15:24:34;;;;;;;1999.90;999.90;;;;;;;;;;5086096;28;20044;-63
2023/05/08 15:27:00;;;;;;;1999.90;999.90;;;;;;;;;;5093134;28;20757;-62
2023/05/08 15:29:26;;;;;;;1999.90;999.90;;;;;;;;;;5093239;28;20077;-63
2023/05/08 15:31:52;;;;;;;1999.90;999.90;;;;;;;;;;5093586;28;20761;-75
2023/05/08 15:34:18;;;;;;;1999.90;999.90;;;;;;;;;;5093224;28;20062;-72
2023/05/08 15:36:44;;;;;;;1999.90;999.90;;;;;;;;;;5093009;28;20031;-66
2023/05/08 15:39:10;;;;;;;1999.90;999.90;;;;;;;;;;5093072;28;20031;-66
2023/05/08 15:41:38;;;;;;;1999.90;999.90;;;;;;;;;;5092822;28;20025;-76
2023/05/08 15:44:05;;;;;;;1999.90;999.90;;;;;;;;;;5092884;28;20451;-77
2023/05/08 15:46:31;;;;;;;1999.90;999.90;;;;;;;;;;5092874;28;20027;-78
2023/05/08 15:48:57;;;;;;;1999.90;999.90;;;;;;;;;;5092926;28;20356;-70
2023/05/08 15:51:23;;;;;;;1999.90;999.90;;;;;;;;;;5092688;28;20039;-66
2023/05/08 15:53:51;;;;;;;1999.90;999.90;;;;;;;;;;5092581;28;20039;-74
2023/05/08 15:56:20;;;;;;;1999.90;999.90;;;;;;;;;;5092964;28;20495;-68
2023/05/08 15:58:46;;;;;;;1999.90;999.90;;;;;;;;;;5092357;28;20028;-76
2023/05/08 16:01:12;;;;;;;1999.90;999.90;;;;;;;;;;5092347;28;20070;-74
2023/05/08 16:03:38;;;;;;;1999.90;999.90;;;;;;;;;;5092447;28;20081;-78
2023/05/08 16:06:04;;;;;;;1999.90;999.90;;;;;;;;;;5092204;28;20110;-76
2023/05/08 16:08:30;;;;;;;1999.90;999.90;;;;;;;;;;5092550;28;20028;-63
2023/05/08 16:10:56;;;;;;;1999.90;999.90;;;;;;;;;;5092066;28;20032;-62
2023/05/08 16:13:22;;;;;;;1999.90;999.90;;;;;;;;;;5092484;28;20536;-73
2023/05/08 16:15:48;;;;;;;1999.90;999.90;;;;;;;;;;5092233;28;20086;-64
2023/05/08 16:18:14;;;;;;;1999.90;999.90;;;;;;;;;;5092404;28;20024;-62
2023/05/08 16:20:41;;;;;;;1999.90;999.90;;;;;;;;;;5092038;28;20028;-62
2023/05/08 16:23:07;;;;;;;1999.90;999.90;;;;;;;;;;5085773;28;20361;-76
2023/05/08 16:25:33;;;;;;;1999.90;999.90;;;;;;;;;;5079583;28;20033;-72
2023/05/08 16:27:59;;;;;;;1999.90;999.90;;;;;;;;;;5080266;28;20024;-61
2023/05/08 16:30:25;;;;;;;1999.90;999.90;;;;;;;;;;5082193;28;20094;-64
2023/05/08 16:32:51;;;;;;;1999.90;999.90;;;;;;;;;;5081822;28;20484;-65
2023/05/08 16:35:18;;;;;;;1999.90;999.90;;;;;;;;;;5079705;28;20020;-65
2023/05/08 16:37:44;;;;;;;1999.90;999.90;;;;;;;;;;5078053;28;20028;-65
2023/05/08 16:40:10;;;;;;;1999.90;999.90;;;;;;;;;;5085595;28;20380;-67
2023/05/08 16:42:36;;;;;;;1999.90;999.90;;;;;;;;;;5078767;28;20060;-77
2023/05/08 16:45:03;;;;;;;1999.90;999.90;;;;;;;;;;5078573;28;20040;-74
2023/05/08 16:47:29;;;;;;;1999.90;999.90;;;;;;;;;;5081810;28;20047;-70
2023/05/08 16:49:55;;;;;;;1999.90;999.90;;;;;;;;;;5080389;28;20046;-69
2023/05/08 16:52:21;;;;;;;1999.90;999.90;;;;;;;;;;5085413;28;20024;-74
2023/05/08 16:54:47;;;;;;;1999.90;999.90;;;;;;;;;;5090883;28;20036;-68
2023/05/08 16:57:13;;;;;;;1999.90;999.90;;;;;;;;;;5072079;28;20373;-71
2023/05/08 16:59:40;;;;;;;1999.90;999.90;;;;;;;;;;5091183;28;20036;-77
2023/05/08 17:02:06;;;;;;;1999.90;999.90;;;;;;;;;;5090902;28;20020;-64
2023/05/08 17:04:32;;;;;;;1999.90;999.90;;;;;;;;;;5090830;28;20285;-63
2023/05/08 17:06:59;;;;;;;1999.90;999.90;;;;;;;;;;5072690;28;20099;-66
2023/05/08 17:09:26;;;;;;;1999.90;999.90;;;;;;;;;;5090817;28;20101;-64
2023/05/08 17:11:52;;;;;;;1999.90;999.90;;;;;;;;;;5090588;28;20040;-73
2023/05/08 17:14:18;;;;;;;1999.90;999.90;;;;;;;;;;5090601;28;20048;-64
2023/05/08 17:16:44;;;;;;;1999.90;999.90;;;;;;;;;;5090614;28;20024;-65
2023/05/08 17:19:10;;;;;;;1999.90;999.90;;;;;;;;;;5091057;28;20020;-63
2023/05/08 17:21:36;;;;;;;1999.90;999.90;;;;;;;;;;5091020;28;20028;-63
2023/05/08 17:24:02;;;;;;;1999.90;999.90;;;;;;;;;;5090613;28;20024;-63
2023/05/08 17:26:31;;;;;;;1999.90;999.90;;;;;;;;;;5091117;28;20043;-64
2023/05/08 17:28:57;;;;;;;1999.90;999.90;;;;;;;;;;5090400;28;20024;-67
2023/05/08 17:31:23;;;;;;;1999.90;999.90;;;;;;;;;;5090618;28;20584;-64
2023/05/08 17:33:49;;;;;;;1999.90;999.90;;;;;;;;;;5081535;28;20056;-64
2023/05/08 17:36:15;;;;;;;1999.90;999.90;;;;;;;;;;5082057;28;20078;-64
2023/05/08 17:38:44;;;;;;;1999.90;999.90;;;;;;;;;;5059545;28;20035;-64
2023/05/08 17:41:11;;;;;;;1999.90;999.90;;;;;;;;;;5090027;28;20028;-69
2023/05/08 17:43:37;;;;;;;1999.90;999.90;;;;;;;;;;5090989;28;20020;-63
2023/05/08 17:46:04;;;;;;;1999.90;999.90;;;;;;;;;;5090590;28;20052;-64
2023/05/08 17:48:30;;;;;;;1999.90;999.90;;;;;;;;;;5090988;28;20445;-63
2023/05/08 17:50:58;;;;;;;1999.90;999.90;;;;;;;;;;5090995;28;20028;-76
2023/05/08 17:53:24;;;;;;;1999.90;999.90;;;;;;;;;;5090966;28;20028;-63
2023/05/08 17:55:50;;;;;;;1999.90;999.90;;;;;;;;;;5090716;28;20466;-70